Time;durP1;ratioP1;P1;durP2;ratioP2;P2;SDS_P1;SDS_P2;PMS_P1;PMS_P2;Temp;Humidity;BMP_temperature;BMP_pressure;BME280_temperature;BME280_humidity;BME280_pressure;Samples;Min_cycle;Max_cycle;Signal;HPM_P1;HPM_P2
2022/10/31 00:02:25;;;;;;;20.75;10.25;;;15.20;86.90;;;;;;5093490;28;20055;-38
2022/10/31 00:04:50;;;;;;;25.77;12.05;;;15.30;86.60;;;;;;5092329;28;20024;-38
2022/10/31 00:07:16;;;;;;;21.90;11.55;;;15.30;86.40;;;;;;5093151;28;20020;-38
2022/10/31 00:09:41;;;;;;;26.48;11.70;;;15.30;86.40;;;;;;5093238;28;20107;-38
2022/10/31 00:12:07;;;;;;;26.10;10.15;;;15.30;86.50;;;;;;5093659;28;20326;-38
2022/10/31 00:14:33;;;;;;;20.20;10.35;;;15.30;86.50;;;;;;5092948;28;20408;-44
2022/10/31 00:16:58;;;;;;;21.85;10.55;;;15.30;86.60;;;;;;5093004;28;20035;-38
2022/10/31 00:19:24;;;;;;;24.77;10.48;;;15.20;86.70;;;;;;5092897;28;20463;-39
2022/10/31 00:21:51;;;;;;;20.83;10.95;;;15.30;86.90;;;;;;5092907;28;20031;-38
2022/10/31 00:24:17;;;;;;;17.88;9.95;;;15.20;86.50;;;;;;5093206;28;20028;-38
2022/10/31 00:26:42;;;;;;;21.35;10.40;;;15.10;86.70;;;;;;5092673;28;20119;-39
2022/10/31 00:29:08;;;;;;;21.42;10.85;;;15.00;86.90;;;;;;5092984;28;20024;-40
2022/10/31 00:31:34;;;;;;;20.98;10.15;;;14.90;87.30;;;;;;5092807;28;20562;-38
2022/10/31 00:33:59;;;;;;;26.45;10.77;;;14.80;87.40;;;;;;5093078;28;20468;-38
2022/10/31 00:36:25;;;;;;;24.42;11.50;;;14.80;87.70;;;;;;5092670;28;20486;-38
2022/10/31 00:38:51;;;;;;;18.38;9.63;;;14.70;87.90;;;;;;5092775;28;20028;-38
2022/10/31 00:41:17;;;;;;;28.48;11.32;;;14.60;88.00;;;;;;5091501;28;20055;-39
2022/10/31 00:43:43;;;;;;;20.85;10.60;;;14.50;88.30;;;;;;5092771;28;20507;-39
2022/10/31 00:46:10;;;;;;;17.45;9.27;;;14.50;88.50;;;;;;5092937;28;20120;-38
2022/10/31 00:48:35;;;;;;;21.65;10.57;;;14.40;88.60;;;;;;5096774;28;20024;-38
2022/10/31 00:51:01;;;;;;;18.98;9.30;;;14.40;88.80;;;;;;5095510;28;20128;-38
2022/10/31 00:53:26;;;;;;;19.90;10.43;;;14.40;88.90;;;;;;5096750;28;20028;-38
2022/10/31 00:55:52;;;;;;;18.20;8.90;;;14.30;89.00;;;;;;5096596;28;20426;-38
2022/10/31 00:58:18;;;;;;;20.85;8.43;;;14.30;89.20;;;;;;5096649;28;20128;-38
2022/10/31 01:00:43;;;;;;;28.70;12.88;;;14.30;89.30;;;;;;5096603;28;20095;-44
2022/10/31 01:03:09;;;;;;;16.55;9.82;;;14.30;89.40;;;;;;5097016;28;20028;-37
2022/10/31 01:05:34;;;;;;;24.02;10.32;;;14.40;89.50;;;;;;5096422;28;20085;-39
2022/10/31 01:08:00;;;;;;;17.63;10.23;;;14.40;89.50;;;;;;5096471;28;20034;-39
2022/10/31 01:10:26;;;;;;;16.55;9.90;;;14.50;89.40;;;;;;5096775;28;20036;-39
2022/10/31 01:12:51;;;;;;;17.10;9.48;;;14.50;89.40;;;;;;5096541;28;20027;-39
2022/10/31 01:15:21;;;;;;;21.77;9.98;;;14.40;89.40;;;;;;5096409;28;20133;-39
2022/10/31 01:17:47;;;;;;;21.90;10.98;;;14.50;89.50;;;;;;5096735;28;20031;-39
2022/10/31 01:20:14;;;;;;;22.65;10.70;;;14.50;89.60;;;;;;5096518;28;20031;-38
2022/10/31 01:22:40;;;;;;;21.42;9.57;;;14.50;89.50;;;;;;5096368;28;20024;-40
2022/10/31 01:25:07;;;;;;;20.85;11.52;;;14.40;89.60;;;;;;5095867;28;20058;-38
2022/10/31 01:27:33;;;;;;;18.65;10.00;;;14.50;89.50;;;;;;5096203;28;20059;-38
2022/10/31 01:29:59;;;;;;;30.98;11.27;;;14.50;89.40;;;;;;5096056;28;20036;-38
2022/10/31 01:32:24;;;;;;;22.55;11.10;;;14.50;89.50;;;;;;5096344;28;20024;-38
2022/10/31 01:34:50;;;;;;;15.40;10.35;;;14.50;89.50;;;;;;5095982;28;20433;-38
2022/10/31 01:37:16;;;;;;;19.95;11.10;;;14.60;89.50;;;;;;5096772;28;20035;-38
2022/10/31 01:39:42;;;;;;;24.23;10.63;;;14.70;89.40;;;;;;5095718;28;20103;-38
2022/10/31 01:42:15;;;;;;;18.60;11.20;;;14.70;89.40;;;;;;5095789;28;20028;-39
2022/10/31 01:44:41;;;;;;;22.40;11.25;;;14.80;89.20;;;;;;5096198;28;20047;-39
2022/10/31 01:47:15;;;;;;;33.88;13.73;;;14.70;89.00;;;;;;5095660;28;20020;-39
2022/10/31 01:49:48;;;;;;;23.88;12.73;;;14.70;89.10;;;;;;5095735;28;20016;-38
2022/10/31 01:52:21;;;;;;;24.58;10.90;;;14.80;89.00;;;;;;5094400;28;20024;-38
2022/10/31 01:55:09;;;;;;;21.77;12.25;;;14.80;89.10;;;;;;5095951;28;20472;-38
2022/10/31 01:57:40;;;;;;;26.33;13.18;;;14.80;89.10;;;;;;5095126;28;20051;-39
2022/10/31 02:00:08;;;;;;;30.35;11.85;;;14.80;89.00;;;;;;5095704;28;20027;-39
2022/10/31 02:02:34;;;;;;;23.52;12.18;;;14.70;88.90;;;;;;5093942;28;20020;-39
2022/10/31 02:05:04;;;;;;;18.30;11.75;;;14.60;89.00;;;;;;5095198;28;20036;-39
2022/10/31 02:08:13;;;;;;;20.97;11.07;;;14.60;89.10;;;;;;5094121;28;20020;-39
2022/10/31 02:10:42;;;;;;;23.65;12.65;;;14.50;89.20;;;;;;5095734;28;20012;-41
2022/10/31 02:13:08;;;;;;;24.27;11.05;;;14.50;89.40;;;;;;5095393;28;20043;-39
2022/10/31 02:15:36;;;;;;;25.58;12.05;;;14.40;89.40;;;;;;5095043;28;20070;-43
2022/10/31 02:18:03;;;;;;;19.88;11.32;;;14.40;89.60;;;;;;5095050;28;20111;-38
2022/10/31 02:20:59;;;;;;;29.10;11.95;;;14.30;89.70;;;;;;5095221;28;20032;-39
2022/10/31 02:23:35;;;;;;;22.92;10.80;;;14.30;89.80;;;;;;5093515;28;20032;-40
2022/10/31 02:26:19;;;;;;;24.02;11.27;;;14.30;90.00;;;;;;5093238;28;20040;-39
2022/10/31 02:29:16;;;;;;;25.02;12.20;;;14.30;90.20;;;;;;5094804;28;20444;-39
2022/10/31 02:32:05;;;;;;;22.85;10.90;;;14.30;90.20;;;;;;5094714;28;20027;-41
2022/10/31 02:34:41;;;;;;;23.27;11.75;;;14.30;90.40;;;;;;5095361;28;20068;-39
2022/10/31 02:37:11;;;;;;;29.75;11.68;;;14.30;90.30;;;;;;5094895;28;20026;-39
2022/10/31 02:39:54;;;;;;;23.20;11.45;;;14.20;90.20;;;;;;5094804;28;20043;-39
2022/10/31 02:42:35;;;;;;;22.75;10.98;;;14.20;90.40;;;;;;5093431;28;20052;-39
2022/10/31 02:45:12;;;;;;;22.85;11.25;;;14.10;90.50;;;;;;5095453;28;20024;-38
2022/10/31 02:47:38;;;;;;;21.10;12.80;;;14.00;90.60;;;;;;5094659;28;20035;-42
2022/10/31 02:50:12;;;;;;;24.40;11.60;;;14.00;90.60;;;;;;5095006;28;20376;-39
2022/10/31 02:52:38;;;;;;;30.70;11.52;;;14.00;90.70;;;;;;5094743;28;20026;-38
2022/10/31 02:55:26;;;;;;;19.23;11.35;;;13.80;90.80;;;;;;5094542;28;20425;-38
2022/10/31 02:57:59;;;;;;;19.35;9.95;;;13.80;90.90;;;;;;5094706;28;20028;-39
2022/10/31 03:00:25;;;;;;;20.60;11.35;;;13.80;91.00;;;;;;5093066;28;20024;-40
2022/10/31 03:03:09;;;;;;;26.02;11.77;;;13.70;91.10;;;;;;5094618;28;20077;-38
2022/10/31 03:05:41;;;;;;;27.08;11.68;;;13.70;91.20;;;;;;5094477;28;20407;-38
2022/10/31 03:08:30;;;;;;;22.98;11.90;;;13.60;91.30;;;;;;5094466;28;20011;-40
2022/10/31 03:11:07;;;;;;;26.52;12.20;;;13.50;91.40;;;;;;5093405;28;20017;-40
2022/10/31 03:13:40;;;;;;;21.63;11.05;;;13.40;91.50;;;;;;5094060;28;20016;-38
2022/10/31 03:16:17;;;;;;;22.90;12.98;;;13.40;91.60;;;;;;5093924;28;20051;-40
2022/10/31 03:19:03;;;;;;;20.58;10.60;;;13.40;91.70;;;;;;5094137;28;20102;-40
2022/10/31 03:21:37;;;;;;;20.60;11.63;;;13.30;91.90;;;;;;5094126;28;20020;-39
2022/10/31 03:24:07;;;;;;;23.30;10.95;;;13.30;91.90;;;;;;5094176;28;20025;-39
2022/10/31 03:26:36;;;;;;;20.30;10.68;;;13.30;92.00;;;;;;5093623;28;20105;-39
2022/10/31 03:29:05;;;;;;;22.55;11.02;;;13.30;92.10;;;;;;5092470;28;20468;-39
2022/10/31 03:31:36;;;;;;;21.10;12.15;;;13.30;92.10;;;;;;5093655;28;20023;-39
2022/10/31 03:34:04;;;;;;;24.10;13.18;;;13.20;92.20;;;;;;5094069;28;20460;-41
2022/10/31 03:36:33;;;;;;;23.63;11.90;;;13.20;92.40;;;;;;5093884;28;20036;-38
2022/10/31 03:39:02;;;;;;;19.63;11.00;;;13.10;92.40;;;;;;5094131;28;20020;-39
2022/10/31 03:41:31;;;;;;;25.70;12.25;;;13.00;92.50;;;;;;5092352;28;20044;-39
2022/10/31 03:44:04;;;;;;;26.95;12.40;;;13.00;92.60;;;;;;5093781;28;20024;-39
2022/10/31 03:46:30;;;;;;;22.50;11.18;;;13.00;92.70;;;;;;5093547;28;20056;-38
2022/10/31 03:48:57;;;;;;;20.05;10.68;;;13.00;92.70;;;;;;5093647;28;20495;-38
2022/10/31 03:51:29;;;;;;;23.73;11.57;;;12.90;92.80;;;;;;5093700;28;20460;-39
2022/10/31 03:54:12;;;;;;;22.45;12.75;;;12.90;92.90;;;;;;5093959;28;20024;-39
2022/10/31 03:56:43;;;;;;;29.13;11.85;;;12.80;92.90;;;;;;5093708;28;20475;-39
2022/10/31 03:59:08;;;;;;;20.90;12.57;;;12.80;92.90;;;;;;5093496;28;20028;-39
2022/10/31 04:01:38;;;;;;;29.30;12.38;;;12.70;93.00;;;;;;5093701;28;20038;-39
2022/10/31 04:04:05;;;;;;;25.43;12.40;;;12.70;93.00;;;;;;5093306;28;20028;-38
2022/10/31 04:06:34;;;;;;;22.08;11.05;;;12.70;93.10;;;;;;5092468;28;20602;-39
2022/10/31 04:09:03;;;;;;;21.42;10.65;;;12.60;93.10;;;;;;5093608;28;20024;-39
2022/10/31 04:11:36;;;;;;;22.75;12.10;;;12.60;93.10;;;;;;5093158;28;20049;-39
2022/10/31 04:14:03;;;;;;;22.60;12.20;;;12.60;93.20;;;;;;5092015;28;20028;-39
2022/10/31 04:16:29;;;;;;;22.60;12.75;;;12.70;93.30;;;;;;5093775;28;20161;-39
2022/10/31 04:18:55;;;;;;;25.73;12.32;;;12.60;93.20;;;;;;5093522;28;20071;-39
2022/10/31 04:21:28;;;;;;;23.05;13.73;;;12.60;93.30;;;;;;5093316;28;20472;-39
2022/10/31 04:23:54;;;;;;;31.55;14.13;;;12.50;93.30;;;;;;5093827;28;20028;-39
2022/10/31 04:26:19;;;;;;;25.23;13.68;;;12.50;93.40;;;;;;5092986;28;20399;-39
2022/10/31 04:28:45;;;;;;;23.15;12.45;;;12.50;93.40;;;;;;5093473;28;20099;-39
2022/10/31 04:31:12;;;;;;;28.15;13.30;;;12.60;93.40;;;;;;5093485;28;20063;-39
2022/10/31 04:33:37;;;;;;;23.33;12.95;;;12.70;93.40;;;;;;5095057;28;20133;-39
2022/10/31 04:36:07;;;;;;;24.40;13.93;;;12.60;93.40;;;;;;5093959;28;20437;-40
2022/10/31 04:38:33;;;;;;;38.35;15.23;;;12.70;93.40;;;;;;5093558;28;20024;-39
2022/10/31 04:40:59;;;;;;;22.30;11.32;;;12.70;93.40;;;;;;5093747;28;20043;-39
2022/10/31 04:43:25;;;;;;;21.00;11.45;;;12.80;93.40;;;;;;5094094;28;20024;-40
2022/10/31 04:45:54;;;;;;;26.73;11.30;;;12.80;93.30;;;;;;5094218;28;20024;-40
2022/10/31 04:48:19;;;;;;;27.40;13.57;;;12.80;93.30;;;;;;5093127;28;20128;-38
2022/10/31 04:50:45;;;;;;;27.60;14.40;;;12.80;93.20;;;;;;5092455;28;20055;-41
2022/10/31 04:53:11;;;;;;;25.20;14.07;;;12.80;93.30;;;;;;5094049;28;20028;-38
2022/10/31 04:55:37;;;;;;;28.38;14.70;;;12.80;93.00;;;;;;5094184;28;20195;-38
2022/10/31 04:58:03;;;;;;;26.27;12.32;;;12.80;93.00;;;;;;5091947;28;20020;-38
2022/10/31 05:00:29;;;;;;;23.38;12.85;;;12.80;92.80;;;;;;5091733;28;20024;-39
2022/10/31 05:02:57;;;;;;;24.90;13.50;;;12.80;92.80;;;;;;5093385;28;20031;-39
2022/10/31 05:05:25;;;;;;;23.95;12.25;;;12.70;92.90;;;;;;5092353;28;20077;-40
2022/10/31 05:07:52;;;;;;;22.83;12.57;;;12.70;92.80;;;;;;5091925;28;20045;-39
2022/10/31 05:10:20;;;;;;;29.55;13.15;;;12.70;92.80;;;;;;5091418;28;20503;-39
2022/10/31 05:12:47;;;;;;;28.00;14.00;;;12.70;92.90;;;;;;5092484;28;20361;-38
2022/10/31 05:15:14;;;;;;;28.05;13.75;;;12.60;92.90;;;;;;5092468;28;20032;-40
2022/10/31 05:17:39;;;;;;;24.48;12.73;;;12.60;93.00;;;;;;5092405;28;20034;-39
2022/10/31 05:20:05;;;;;;;26.20;14.45;;;12.60;93.00;;;;;;5092587;28;20095;-39
2022/10/31 05:22:31;;;;;;;27.05;13.32;;;12.60;93.10;;;;;;5091303;28;20028;-39
2022/10/31 05:24:57;;;;;;;28.80;14.05;;;12.60;93.20;;;;;;5092386;28;20123;-39
2022/10/31 05:27:22;;;;;;;24.38;14.18;;;12.50;93.20;;;;;;5092687;28;20353;-39
2022/10/31 05:29:48;;;;;;;26.50;14.00;;;12.50;93.30;;;;;;5092800;28;20465;-39
2022/10/31 05:32:14;;;;;;;26.30;14.20;;;12.50;93.30;;;;;;5092739;28;20487;-39
2022/10/31 05:34:39;;;;;;;21.63;12.95;;;12.50;93.40;;;;;;5096144;28;20020;-39
2022/10/31 05:37:05;;;;;;;28.05;13.00;;;12.40;93.40;;;;;;5096673;28;20032;-39
2022/10/31 05:39:30;;;;;;;30.75;12.70;;;12.40;93.50;;;;;;5096197;28;20501;-40
2022/10/31 05:41:56;;;;;;;23.52;13.27;;;12.40;93.50;;;;;;5095911;28;20028;-39
2022/10/31 05:44:22;;;;;;;22.90;13.32;;;12.40;93.50;;;;;;5096160;28;20024;-39
2022/10/31 05:46:47;;;;;;;39.13;15.35;;;12.40;93.60;;;;;;5095707;28;20078;-39
2022/10/31 05:49:13;;;;;;;23.48;13.90;;;12.40;93.60;;;;;;5096614;28;20020;-39
2022/10/31 05:51:39;;;;;;;24.10;13.68;;;12.30;93.60;;;;;;5094593;28;20048;-37
2022/10/31 05:54:04;;;;;;;28.02;15.18;;;12.30;93.70;;;;;;5096116;28;20379;-41
2022/10/31 05:56:30;;;;;;;24.88;14.27;;;12.30;93.70;;;;;;5096273;28;20448;-39
2022/10/31 05:58:56;;;;;;;32.65;14.05;;;12.30;93.70;;;;;;5095553;28;20024;-40
2022/10/31 06:01:22;;;;;;;30.55;14.85;;;12.30;93.70;;;;;;5095657;28;20422;-38
2022/10/31 06:03:47;;;;;;;29.95;15.73;;;12.30;93.80;;;;;;5095613;28;20032;-38
2022/10/31 06:06:13;;;;;;;31.50;15.82;;;12.30;93.80;;;;;;5094180;28;20028;-38
2022/10/31 16:24:37;;;;;;;31.63;16.27;;;16.60;86.20;;;;;;5070706;28;20410;-49
2022/10/31 16:27:19;;;;;;;29.98;16.77;;;16.60;86.50;;;;;;5068501;28;20029;-49
2022/10/31 16:29:46;;;;;;;48.90;23.10;;;16.60;86.30;;;;;;5069971;28;20082;-51
2022/10/31 16:32:30;;;;;;;39.30;16.90;;;16.70;86.20;;;;;;5069901;28;20029;-51
2022/10/31 16:35:09;;;;;;;39.40;18.92;;;16.70;86.00;;;;;;5070250;28;20024;-53
2022/10/31 16:37:40;;;;;;;35.25;19.25;;;16.70;86.10;;;;;;5069654;28;20036;-50
2022/10/31 16:40:06;;;;;;;28.65;18.27;;;16.70;85.90;;;;;;5057685;28;20025;-49
2022/10/31 16:42:32;;;;;;;37.15;19.40;;;16.80;85.80;;;;;;5049909;28;20088;-49
2022/10/31 16:44:59;;;;;;;40.83;19.48;;;16.80;85.50;;;;;;5049692;28;20366;-51
2022/10/31 16:47:25;;;;;;;38.80;19.23;;;16.80;85.40;;;;;;5050197;28;20529;-52
2022/10/31 16:49:51;;;;;;;40.35;15.15;;;16.80;85.20;;;;;;5049789;28;20056;-52
2022/10/31 16:52:17;;;;;;;33.53;16.58;;;16.80;85.30;;;;;;5049851;28;20024;-49
2022/10/31 16:54:43;;;;;;;29.98;16.08;;;16.80;85.30;;;;;;5049301;28;20026;-49
2022/10/31 16:57:15;;;;;;;38.03;16.40;;;16.70;85.40;;;;;;5048321;28;20129;-49
2022/10/31 16:59:42;;;;;;;38.97;17.42;;;16.60;85.50;;;;;;5031322;28;20052;-50
2022/10/31 17:02:14;;;;;;;36.60;18.10;;;16.60;85.40;;;;;;5048821;28;20021;-51
2022/10/31 17:04:40;;;;;;;37.40;19.27;;;16.60;85.60;;;;;;5048836;28;20107;-49
2022/10/31 17:07:05;;;;;;;31.60;17.92;;;16.60;85.60;;;;;;5048965;28;20025;-51
2022/10/31 17:09:31;;;;;;;49.03;20.40;;;16.50;85.80;;;;;;5048842;28;20032;-49
2022/10/31 17:11:58;;;;;;;38.08;20.95;;;16.40;85.90;;;;;;5049034;28;20075;-51
2022/10/31 17:14:23;;;;;;;40.25;18.27;;;16.40;86.10;;;;;;5048695;28;20036;-51
2022/10/31 17:16:49;;;;;;;43.92;19.30;;;16.30;86.30;;;;;;5049350;28;20026;-49
2022/10/31 17:19:15;;;;;;;44.95;18.15;;;16.30;86.60;;;;;;5049022;28;20025;-53
2022/10/31 17:21:42;;;;;;;36.35;18.83;;;16.20;87.00;;;;;;5048974;28;20386;-52
2022/10/31 17:24:12;;;;;;;34.10;17.42;;;16.20;87.00;;;;;;5047222;28;20045;-49
2022/10/31 17:26:38;;;;;;;34.38;17.38;;;16.20;87.10;;;;;;5048880;28;20049;-50
2022/10/31 17:29:03;;;;;;;44.08;20.38;;;16.10;87.30;;;;;;5048842;28;20048;-49
2022/10/31 17:31:31;;;;;;;39.80;19.15;;;16.00;87.50;;;;;;5048733;28;20409;-48
2022/10/31 17:33:58;;;;;;;48.10;19.38;;;16.00;87.70;;;;;;5044556;28;20490;-52
2022/10/31 17:36:25;;;;;;;45.03;18.88;;;16.00;87.70;;;;;;5033785;28;20492;-50
2022/10/31 17:38:50;;;;;;;42.40;19.83;;;16.00;87.70;;;;;;5034690;28;20056;-51
2022/10/31 17:41:16;;;;;;;43.22;20.55;;;16.00;87.70;;;;;;5034593;28;20127;-52
2022/10/31 17:43:42;;;;;;;38.17;18.05;;;16.00;87.70;;;;;;5034763;28;20025;-49
2022/10/31 17:46:08;;;;;;;40.03;20.88;;;16.00;87.80;;;;;;5034475;28;20021;-49
2022/10/31 17:48:35;;;;;;;34.88;18.45;;;16.00;87.60;;;;;;5035133;28;20026;-49
2022/10/31 17:51:01;;;;;;;43.97;21.35;;;15.90;87.80;;;;;;5034967;28;20032;-50
2022/10/31 17:53:32;;;;;;;38.33;18.50;;;15.90;87.80;;;;;;5035813;28;20017;-49
2022/10/31 17:56:04;;;;;;;40.15;19.40;;;15.90;87.80;;;;;;5035325;28;20029;-50
2022/10/31 17:58:31;;;;;;;36.47;18.23;;;15.80;87.80;;;;;;5033350;28;20029;-50
2022/10/31 18:00:57;;;;;;;57.03;25.20;;;15.80;88.00;;;;;;5033379;28;20091;-52
2022/10/31 18:03:24;;;;;;;45.78;21.48;;;15.80;88.10;;;;;;5034511;28;20034;-48
2022/10/31 18:05:57;;;;;;;36.72;17.52;;;15.70;88.00;;;;;;5034634;28;20155;-56
2022/10/31 18:08:28;;;;;;;37.45;19.60;;;15.60;88.20;;;;;;5033034;28;20022;-50
2022/10/31 18:10:55;;;;;;;36.47;18.85;;;15.60;88.60;;;;;;5034246;28;20036;-49
2022/10/31 18:13:22;;;;;;;42.85;19.88;;;15.60;88.30;;;;;;5034361;28;20025;-49
2022/10/31 18:15:48;;;;;;;45.50;21.70;;;15.40;88.40;;;;;;5034264;28;20030;-50
2022/10/31 18:18:14;;;;;;;43.63;20.75;;;15.40;88.60;;;;;;5034629;28;20026;-41
2022/10/31 18:20:39;;;;;;;41.13;20.73;;;15.40;88.80;;;;;;5016736;28;20030;-45
2022/10/31 18:23:06;;;;;;;43.15;21.65;;;15.40;88.80;;;;;;5034009;28;20145;-39
2022/10/31 18:25:32;;;;;;;37.30;20.45;;;15.30;88.80;;;;;;5034716;28;20391;-39
2022/10/31 18:27:57;;;;;;;45.10;21.02;;;15.30;88.90;;;;;;5032754;28;20111;-39
2022/10/31 18:30:23;;;;;;;38.83;19.25;;;15.30;88.90;;;;;;5033928;28;20041;-39
2022/10/31 18:32:52;;;;;;;39.05;20.38;;;15.30;89.00;;;;;;5033839;28;20056;-38
2022/10/31 18:35:18;;;;;;;34.22;18.17;;;15.20;89.20;;;;;;5034127;28;20030;-39
2022/10/31 18:37:44;;;;;;;36.67;18.30;;;15.20;89.30;;;;;;5034029;28;20108;-39
2022/10/31 18:40:10;;;;;;;32.33;17.70;;;15.20;89.30;;;;;;5034127;28;20489;-39
2022/10/31 18:42:37;;;;;;;37.70;19.17;;;15.20;88.80;;;;;;5032639;28;20057;-39
2022/10/31 18:45:03;;;;;;;41.58;21.00;;;15.20;88.60;;;;;;5034031;28;20449;-40
2022/10/31 18:47:29;;;;;;;33.47;18.70;;;15.20;88.70;;;;;;5032592;28;20497;-39
2022/10/31 18:49:55;;;;;;;34.58;17.75;;;15.10;88.80;;;;;;5033742;28;20037;-39
2022/10/31 18:52:20;;;;;;;39.08;18.77;;;15.00;88.90;;;;;;5032321;28;20033;-38
2022/10/31 18:54:46;;;;;;;31.35;16.73;;;14.90;88.80;;;;;;5032184;28;20041;-39
2022/10/31 18:57:12;;;;;;;38.08;17.45;;;14.80;88.80;;;;;;5033596;28;20079;-39
2022/10/31 18:59:38;;;;;;;40.38;18.85;;;14.80;88.90;;;;;;5033427;28;20025;-39
2022/10/31 19:02:04;;;;;;;34.50;19.67;;;14.80;89.00;;;;;;5034031;28;20465;-39
2022/10/31 19:04:29;;;;;;;31.67;17.17;;;14.80;89.20;;;;;;5015755;28;20030;-39
2022/10/31 19:06:56;;;;;;;43.00;21.67;;;14.80;89.20;;;;;;5032009;28;20382;-39
2022/10/31 19:09:23;;;;;;;42.17;17.83;;;14.80;89.30;;;;;;5032076;28;20029;-40
2022/10/31 19:11:49;;;;;;;44.10;19.95;;;14.80;89.30;;;;;;5033372;28;20056;-39
2022/10/31 19:14:15;;;;;;;39.78;19.05;;;14.70;89.30;;;;;;5031837;28;20036;-38
2022/10/31 19:16:41;;;;;;;32.42;16.52;;;14.70;89.30;;;;;;5033302;28;20033;-38
2022/10/31 19:19:08;;;;;;;40.08;17.08;;;14.70;89.40;;;;;;5033165;28;20099;-38
2022/10/31 19:21:33;;;;;;;31.25;15.68;;;14.70;89.10;;;;;;5033474;28;20025;-39
2022/10/31 19:24:00;;;;;;;32.45;19.52;;;14.70;88.60;;;;;;5031198;28;20466;-38
2022/10/31 19:26:26;;;;;;;69.53;28.52;;;14.70;88.10;;;;;;5031919;28;20072;-39
2022/10/31 19:28:53;;;;;;;22.27;12.18;;;14.70;87.70;;;;;;5033234;28;20072;-38
2022/10/31 19:31:19;;;;;;;24.55;13.32;;;14.70;86.40;;;;;;5015423;28;20480;-38
2022/10/31 19:33:45;;;;;;;27.48;12.70;;;14.80;85.30;;;;;;5033254;28;20129;-39
2022/10/31 19:36:14;;;;;;;26.92;10.00;;;14.80;84.90;;;;;;5033698;28;20065;-40
2022/10/31 19:38:46;;;;;;;22.77;9.88;;;14.80;83.40;;;;;;5033636;28;20072;-40
2022/10/31 19:41:18;;;;;;;26.23;9.75;;;14.80;82.20;;;;;;5032048;28;20038;-40
2022/10/31 19:43:44;;;;;;;22.70;10.10;;;14.90;81.60;;;;;;5032057;28;20063;-39
2022/10/31 19:46:16;;;;;;;24.92;11.73;;;14.90;81.50;;;;;;5033392;28;20070;-38
2022/10/31 19:48:42;;;;;;;20.38;10.38;;;14.80;81.60;;;;;;5033152;28;20530;-40
2022/10/31 19:51:12;;;;;;;22.25;10.68;;;14.70;81.60;;;;;;5033283;28;20474;-39
2022/10/31 19:53:39;;;;;;;21.83;10.82;;;14.60;81.50;;;;;;5032596;28;20040;-39
2022/10/31 19:56:16;;;;;;;20.63;8.55;;;14.60;81.20;;;;;;5033333;28;20026;-40
2022/10/31 19:58:42;;;;;;;17.88;11.38;;;14.70;80.70;;;;;;5033069;28;20048;-39
2022/10/31 20:01:13;;;;;;;23.95;11.10;;;14.60;80.90;;;;;;5031914;28;20025;-39
2022/10/31 20:03:41;;;;;;;21.38;11.13;;;14.60;80.90;;;;;;5033202;28;20061;-39
2022/10/31 20:06:19;;;;;;;26.30;11.00;;;14.60;81.00;;;;;;5032913;28;20029;-39
2022/10/31 20:08:45;;;;;;;21.20;10.80;;;14.50;80.90;;;;;;5033791;28;20156;-39
2022/10/31 20:11:11;;;;;;;32.42;11.75;;;14.50;81.00;;;;;;5033002;28;20036;-39
2022/10/31 20:13:37;;;;;;;25.02;10.27;;;14.50;81.20;;;;;;5031951;28;20029;-40
2022/10/31 20:16:08;;;;;;;30.80;14.85;;;14.50;81.30;;;;;;5033419;28;20025;-40
2022/10/31 20:18:36;;;;;;;25.48;11.68;;;14.40;81.20;;;;;;5033737;28;20036;-39
2022/10/31 20:21:13;;;;;;;26.92;13.65;;;14.40;81.70;;;;;;5031674;28;20030;-40
2022/10/31 20:23:39;;;;;;;30.33;13.48;;;14.30;82.00;;;;;;5032968;28;20081;-40
2022/10/31 20:26:07;;;;;;;22.70;13.05;;;14.30;82.20;;;;;;5032882;28;20021;-40
2022/10/31 20:28:33;;;;;;;16.45;10.40;;;14.20;82.60;;;;;;5032745;28;20021;-40
2022/10/31 20:31:00;;;;;;;18.90;10.68;;;14.20;82.40;;;;;;5033158;28;20072;-40
2022/10/31 20:33:26;;;;;;;22.33;10.82;;;14.20;81.30;;;;;;5033504;28;20064;-40
2022/10/31 20:35:52;;;;;;;21.80;10.93;;;14.30;81.10;;;;;;5033383;28;20056;-39
2022/10/31 20:38:17;;;;;;;20.98;11.80;;;14.30;80.80;;;;;;5033661;28;20026;-41
2022/10/31 20:40:43;;;;;;;17.10;9.98;;;14.30;81.30;;;;;;5033449;28;20129;-40
2022/10/31 20:43:10;;;;;;;20.83;9.23;;;14.30;80.60;;;;;;5033201;28;20037;-40
2022/10/31 20:45:36;;;;;;;17.58;10.20;;;14.30;80.40;;;;;;5032326;28;20081;-42
2022/10/31 20:48:02;;;;;;;14.63;8.30;;;14.30;80.10;;;;;;5034184;28;20458;-40
2022/10/31 20:50:28;;;;;;;17.02;8.45;;;14.30;79.50;;;;;;5033522;28;20025;-40
2022/10/31 20:52:54;;;;;;;17.73;7.60;;;14.30;79.10;;;;;;5032277;28;20021;-41
2022/10/31 20:55:20;;;;;;;19.55;9.13;;;14.30;79.00;;;;;;5032032;28;20409;-40
2022/10/31 20:57:46;;;;;;;16.45;8.13;;;14.30;79.10;;;;;;5032645;28;20128;-39
2022/10/31 21:00:12;;;;;;;17.65;8.45;;;14.30;78.80;;;;;;5032923;28;20377;-39
2022/10/31 21:02:42;;;;;;;16.17;9.60;;;14.30;78.80;;;;;;5032444;28;20113;-39
2022/10/31 21:05:10;;;;;;;18.95;7.97;;;14.30;78.10;;;;;;5031396;28;20021;-39
2022/10/31 21:07:36;;;;;;;16.30;8.23;;;14.30;78.40;;;;;;5032518;28;20437;-43
2022/10/31 21:10:02;;;;;;;16.38;9.10;;;14.30;78.30;;;;;;5032735;28;20022;-40
2022/10/31 21:12:28;;;;;;;16.08;8.98;;;14.30;78.30;;;;;;5018841;28;20025;-40
2022/10/31 21:14:54;;;;;;;20.50;8.70;;;14.30;78.40;;;;;;5036551;28;20021;-40
2022/10/31 21:17:20;;;;;;;23.92;7.07;;;14.30;78.30;;;;;;5034951;28;20478;-39
2022/10/31 21:19:46;;;;;;;14.23;8.15;;;14.40;77.40;;;;;;5036208;28;20021;-39
2022/10/31 21:22:12;;;;;;;18.52;8.77;;;14.40;77.10;;;;;;5034462;28;20504;-40
2022/10/31 21:24:38;;;;;;;21.90;8.25;;;14.40;77.40;;;;;;5035784;28;20377;-39
2022/10/31 21:27:04;;;;;;;15.95;7.13;;;14.30;78.10;;;;;;5036000;28;20021;-39
2022/10/31 21:29:30;;;;;;;16.23;7.13;;;14.30;77.70;;;;;;5035965;28;20473;-39
2022/10/31 21:31:55;;;;;;;16.58;6.75;;;14.30;77.40;;;;;;5035577;28;20025;-39
2022/10/31 21:34:21;;;;;;;12.25;7.40;;;14.40;77.10;;;;;;5035984;28;20559;-38
2022/10/31 21:36:46;;;;;;;20.35;6.85;;;14.50;76.60;;;;;;5035713;28;20057;-40
2022/10/31 21:39:12;;;;;;;10.25;6.65;;;14.60;76.20;;;;;;5035517;28;20108;-40
2022/10/31 21:41:38;;;;;;;10.20;5.63;;;14.60;76.20;;;;;;5035743;28;20388;-38
2022/10/31 21:44:04;;;;;;;17.25;6.03;;;14.80;75.50;;;;;;5035309;28;20104;-39
2022/10/31 21:46:31;;;;;;;12.45;7.93;;;14.80;75.30;;;;;;5035639;28;20014;-39
2022/10/31 21:49:00;;;;;;;16.75;6.43;;;14.80;75.20;;;;;;5034463;28;20022;-39
2022/10/31 21:51:28;;;;;;;10.93;6.40;;;14.80;75.30;;;;;;5034460;28;20021;-40
2022/10/31 21:56:39;;;;;;;16.00;6.80;;;14.80;75.50;;;;;;5035822;28;20037;-39
2022/10/31 21:59:05;;;;;;;8.52;4.88;;;14.80;75.00;;;;;;5035252;28;20033;-39
2022/10/31 22:01:32;;;;;;;13.23;6.15;;;15.00;74.50;;;;;;5035339;28;20051;-39
2022/10/31 22:03:57;;;;;;;14.88;6.72;;;15.10;74.40;;;;;;5035551;28;20045;-39
2022/10/31 22:06:25;;;;;;;16.48;6.88;;;15.10;74.20;;;;;;5035419;28;20021;-41
2022/10/31 22:08:54;;;;;;;15.38;5.78;;;15.10;74.30;;;;;;5035221;28;20307;-41
2022/10/31 22:11:20;;;;;;;18.52;7.57;;;15.00;74.60;;;;;;5035103;28;20021;-39
2022/10/31 22:13:48;;;;;;;14.23;6.15;;;15.10;74.60;;;;;;5035318;28;20055;-38
2022/10/31 22:16:16;;;;;;;12.88;5.95;;;15.20;74.20;;;;;;5035212;28;20413;-38
2022/10/31 22:18:43;;;;;;;14.45;4.70;;;15.30;73.80;;;;;;5035937;28;20048;-41
2022/10/31 22:21:17;;;;;;;15.25;4.45;;;15.30;73.90;;;;;;5035372;28;20022;-38
2022/10/31 22:23:48;;;;;;;8.38;4.60;;;15.20;74.00;;;;;;5034716;28;20401;-40
2022/10/31 22:26:15;;;;;;;12.45;5.25;;;15.20;74.30;;;;;;5035147;28;20060;-39
2022/10/31 22:28:54;;;;;;;18.15;5.88;;;15.20;74.70;;;;;;5035762;28;20048;-40
2022/10/31 22:31:22;;;;;;;13.13;4.70;;;15.10;75.10;;;;;;5034153;28;20021;-39
2022/10/31 22:33:49;;;;;;;12.20;5.70;;;15.10;74.90;;;;;;5034912;28;20033;-39
2022/10/31 22:36:17;;;;;;;13.30;5.25;;;15.20;74.80;;;;;;5034920;28;20064;-39
2022/10/31 22:38:44;;;;;;;12.13;5.47;;;15.20;75.00;;;;;;5033142;28;20117;-39
2022/10/31 22:41:12;;;;;;;10.45;4.63;;;15.20;74.90;;;;;;5034788;28;20029;-40
2022/10/31 22:43:38;;;;;;;14.75;4.72;;;15.30;74.50;;;;;;5016589;28;20488;-39
2022/10/31 22:46:10;;;;;;;10.15;5.05;;;15.30;74.00;;;;;;5034411;28;20017;-40
2022/10/31 22:48:39;;;;;;;9.93;4.18;;;15.70;72.90;;;;;;5034440;28;20418;-39
2022/10/31 22:51:10;;;;;;;9.88;4.10;;;15.80;72.50;;;;;;5034889;28;20113;-38
2022/10/31 22:53:37;;;;;;;10.05;4.78;;;15.80;72.30;;;;;;5034200;28;20033;-39